sensor_id;sensor_type;location;lat;lon;timestamp;pressure;altitude;pressure_sealevel;temperature;humidity
13013;BME280;22580;57.670;12.006;2023-05-11T00:01:18;101315.81;;;23.25;25.93
13013;BME280;22580;57.670;12.006;2023-05-11T00:03:45;101322.44;;;23.31;25.57
13013;BME280;22580;57.670;12.006;2023-05-11T00:06:12;101318.19;;;23.28;25.54
13013;BME280;22580;57.670;12.006;2023-05-11T00:08:40;101322.91;;;23.34;25.45
13013;BME280;22580;57.670;12.006;2023-05-11T00:11:07;101333.59;;;23.13;25.91
13013;BME280;22580;57.670;12.006;2023-05-11T00:13:34;101316.75;;;23.01;25.95
13013;BME280;22580;57.670;12.006;2023-05-11T00:16:01;101323.63;;;22.73;26.44
13013;BME280;22580;57.670;12.006;2023-05-11T00:18:28;101314.94;;;22.69;26.46
13013;BME280;22580;57.670;12.006;2023-05-11T00:20:55;101311.88;;;22.72;26.45
13013;BME280;22580;57.670;12.006;2023-05-11T00:23:22;101328.91;;;22.82;26.48
13013;BME280;22580;57.670;12.006;2023-05-11T00:25:51;101327.03;;;22.83;26.59
13013;BME280;22580;57.670;12.006;2023-05-11T00:28:18;101320.91;;;22.81;26.31
13013;BME280;22580;57.670;12.006;2023-05-11T00:30:45;101330.72;;;23.06;25.89
13013;BME280;22580;57.670;12.006;2023-05-11T00:33:12;101329.13;;;23.20;26.07
13013;BME280;22580;57.670;12.006;2023-05-11T00:35:39;101319.88;;;23.29;26.01
13013;BME280;22580;57.670;12.006;2023-05-11T00:38:07;101331.72;;;23.13;26.18
13013;BME280;22580;57.670;12.006;2023-05-11T00:40:34;101328.53;;;22.94;26.08
13013;BME280;22580;57.670;12.006;2023-05-11T00:43:02;101327.06;;;22.58;26.88
13013;BME280;22580;57.670;12.006;2023-05-11T00:45:29;101296.28;;;22.42;26.94
13013;BME280;22580;57.670;12.006;2023-05-11T00:47:57;101321.75;;;22.73;26.86
13013;BME280;22580;57.670;12.006;2023-05-11T00:50:24;101337.44;;;22.79;26.62
13013;BME280;22580;57.670;12.006;2023-05-11T00:52:52;101336.56;;;22.71;26.92
13013;BME280;22580;57.670;12.006;2023-05-11T00:55:19;101340.13;;;22.87;26.55
13013;BME280;22580;57.670;12.006;2023-05-11T00:57:49;101310.75;;;22.42;27.15
13013;BME280;22580;57.670;12.006;2023-05-11T01:00:18;101341.84;;;22.72;26.93
13013;BME280;22580;57.670;12.006;2023-05-11T01:02:44;101337.63;;;22.53;27.34
13013;BME280;22580;57.670;12.006;2023-05-11T01:05:12;101346.34;;;22.33;27.30
13013;BME280;22580;57.670;12.006;2023-05-11T01:07:45;101344.41;;;22.66;26.97
13013;BME280;22580;57.670;12.006;2023-05-11T01:10:20;101338.34;;;22.39;27.53
13013;BME280;22580;57.670;12.006;2023-05-11T01:12:56;101322.78;;;22.56;27.08
13013;BME280;22580;57.670;12.006;2023-05-11T01:15:33;101318.06;;;22.50;27.04
13013;BME280;22580;57.670;12.006;2023-05-11T01:18:10;101329.16;;;22.48;27.66
13013;BME280;22580;57.670;12.006;2023-05-11T01:20:39;101340.38;;;22.37;27.25
13013;BME280;22580;57.670;12.006;2023-05-11T01:23:32;101328.13;;;22.41;27.39
13013;BME280;22580;57.670;12.006;2023-05-11T01:26:27;101325.56;;;22.40;27.47
13013;BME280;22580;57.670;12.006;2023-05-11T01:29:28;101333.75;;;22.48;27.40
13013;BME280;22580;57.670;12.006;2023-05-11T01:32:05;101330.50;;;22.44;27.42
13013;BME280;22580;57.670;12.006;2023-05-11T01:34:38;101332.72;;;22.33;27.94
13013;BME280;22580;57.670;12.006;2023-05-11T01:37:10;101331.88;;;22.48;27.54
13013;BME280;22580;57.670;12.006;2023-05-11T01:39:41;101331.72;;;22.34;28.23
13013;BME280;22580;57.670;12.006;2023-05-11T01:42:13;101335.09;;;22.44;27.51
13013;BME280;22580;57.670;12.006;2023-05-11T01:44:42;101317.25;;;22.33;27.69
13013;BME280;22580;57.670;12.006;2023-05-11T01:47:12;101342.44;;;22.35;27.89
13013;BME280;22580;57.670;12.006;2023-05-11T01:49:41;101331.72;;;22.17;28.61
13013;BME280;22580;57.670;12.006;2023-05-11T01:52:10;101336.47;;;22.07;28.38
13013;BME280;22580;57.670;12.006;2023-05-11T01:54:39;101337.31;;;22.08;28.10
13013;BME280;22580;57.670;12.006;2023-05-11T01:57:08;101332.38;;;22.03;28.46
13013;BME280;22580;57.670;12.006;2023-05-11T01:59:38;101329.97;;;21.92;28.48
13013;BME280;22580;57.670;12.006;2023-05-11T02:02:07;101341.56;;;22.02;28.58
13013;BME280;22580;57.670;12.006;2023-05-11T02:04:39;101334.34;;;21.69;28.93
13013;BME280;22580;57.670;12.006;2023-05-11T02:07:07;101348.63;;;21.54;29.47
13013;BME280;22580;57.670;12.006;2023-05-11T02:09:37;101337.56;;;21.72;29.27
13013;BME280;22580;57.670;12.006;2023-05-11T02:12:05;101339.78;;;21.61;29.15
13013;BME280;22580;57.670;12.006;2023-05-11T02:14:34;101344.56;;;20.90;29.78
13013;BME280;22580;57.670;12.006;2023-05-11T02:17:03;101314.84;;;21.23;29.77
13013;BME280;22580;57.670;12.006;2023-05-11T02:19:32;101343.66;;;21.42;29.56
13013;BME280;22580;57.670;12.006;2023-05-11T02:22:02;101341.13;;;21.56;29.77
13013;BME280;22580;57.670;12.006;2023-05-11T02:24:30;101356.81;;;21.63;29.79
13013;BME280;22580;57.670;12.006;2023-05-11T02:26:58;101358.47;;;21.55;29.54
13013;BME280;22580;57.670;12.006;2023-05-11T02:29:25;101360.63;;;21.10;30.46
13013;BME280;22580;57.670;12.006;2023-05-11T02:31:55;101367.25;;;21.33;30.30
13013;BME280;22580;57.670;12.006;2023-05-11T02:34:25;101356.50;;;21.23;30.35
13013;BME280;22580;57.670;12.006;2023-05-11T02:36:58;101359.38;;;21.22;30.28
13013;BME280;22580;57.670;12.006;2023-05-11T02:39:31;101356.19;;;21.35;30.00
13013;BME280;22580;57.670;12.006;2023-05-11T02:42:02;101358.00;;;21.60;29.44
13013;BME280;22580;57.670;12.006;2023-05-11T02:44:35;101366.16;;;21.60;29.86
13013;BME280;22580;57.670;12.006;2023-05-11T02:47:05;101358.88;;;21.85;29.43
13013;BME280;22580;57.670;12.006;2023-05-11T02:49:35;101359.44;;;22.05;29.57
13013;BME280;22580;57.670;12.006;2023-05-11T02:52:05;101360.81;;;22.25;28.99
13013;BME280;22580;57.670;12.006;2023-05-11T02:54:36;101362.84;;;22.15;29.52
13013;BME280;22580;57.670;12.006;2023-05-11T02:57:04;101365.00;;;21.87;29.43
13013;BME280;22580;57.670;12.006;2023-05-11T02:59:31;101371.53;;;22.18;29.51
13013;BME280;22580;57.670;12.006;2023-05-11T03:01:59;101372.50;;;21.93;29.83
13013;BME280;22580;57.670;12.006;2023-05-11T03:04:26;101369.50;;;22.12;29.47
13013;BME280;22580;57.670;12.006;2023-05-11T03:06:54;101371.47;;;21.94;29.64
13013;BME280;22580;57.670;12.006;2023-05-11T03:09:21;101373.94;;;22.21;29.70
13013;BME280;22580;57.670;12.006;2023-05-11T03:11:50;101372.03;;;22.06;29.59
13013;BME280;22580;57.670;12.006;2023-05-11T03:14:17;101368.97;;;22.09;29.55
13013;BME280;22580;57.670;12.006;2023-05-11T03:16:45;101387.13;;;22.00;30.05
13013;BME280;22580;57.670;12.006;2023-05-11T03:19:13;101379.63;;;21.94;29.84
13013;BME280;22580;57.670;12.006;2023-05-11T03:21:40;101371.00;;;22.07;30.13
13013;BME280;22580;57.670;12.006;2023-05-11T03:24:09;101389.94;;;22.24;29.69
13013;BME280;22580;57.670;12.006;2023-05-11T03:26:38;101393.31;;;22.18;29.71
13013;BME280;22580;57.670;12.006;2023-05-11T03:29:09;101379.88;;;22.17;29.64
13013;BME280;22580;57.670;12.006;2023-05-11T03:31:37;101390.91;;;22.56;29.25
13013;BME280;22580;57.670;12.006;2023-05-11T03:34:04;101396.03;;;22.67;29.00
13013;BME280;22580;57.670;12.006;2023-05-11T03:36:32;101403.69;;;22.72;29.03
13013;BME280;22580;57.670;12.006;2023-05-11T03:39:00;101392.44;;;22.67;28.97
13013;BME280;22580;57.670;12.006;2023-05-11T03:41:29;101396.22;;;22.82;28.81
13013;BME280;22580;57.670;12.006;2023-05-11T03:43:59;101390.06;;;22.64;29.24
13013;BME280;22580;57.670;12.006;2023-05-11T03:46:29;101402.50;;;22.74;29.18
13013;BME280;22580;57.670;12.006;2023-05-11T03:49:00;101357.94;;;22.27;29.16
13013;BME280;22580;57.670;12.006;2023-05-11T03:51:28;101395.84;;;23.01;28.81
13013;BME280;22580;57.670;12.006;2023-05-11T03:53:56;101399.94;;;22.97;28.81
13013;BME280;22580;57.670;12.006;2023-05-11T03:56:23;101400.25;;;23.02;28.79
13013;BME280;22580;57.670;12.006;2023-05-11T03:58:51;101389.72;;;22.67;29.13
13013;BME280;22580;57.670;12.006;2023-05-11T04:01:18;101404.19;;;23.00;28.96
13013;BME280;22580;57.670;12.006;2023-05-11T04:03:49;101406.75;;;23.01;28.72
13013;BME280;22580;57.670;12.006;2023-05-11T04:06:17;101404.84;;;23.10;28.90
13013;BME280;22580;57.670;12.006;2023-05-11T04:08:45;101411.34;;;23.01;28.91
13013;BME280;22580;57.670;12.006;2023-05-11T04:11:12;101410.84;;;22.73;29.33
13013;BME280;22580;57.670;12.006;2023-05-11T04:13:39;101407.59;;;22.69;29.24
13013;BME280;22580;57.670;12.006;2023-05-11T04:16:06;101410.69;;;22.82;29.46
13013;BME280;22580;57.670;12.006;2023-05-11T04:18:33;101416.63;;;23.02;29.04
13013;BME280;22580;57.670;12.006;2023-05-11T04:21:01;101422.22;;;23.17;29.31
13013;BME280;22580;57.670;12.006;2023-05-11T04:23:28;101428.81;;;23.31;29.06
13013;BME280;22580;57.670;12.006;2023-05-11T04:25:55;101423.97;;;23.41;28.80
13013;BME280;22580;57.670;12.006;2023-05-11T04:28:22;101427.28;;;23.36;29.09
13013;BME280;22580;57.670;12.006;2023-05-11T04:30:52;101429.59;;;23.47;29.02
13013;BME280;22580;57.670;12.006;2023-05-11T04:33:19;101426.34;;;23.52;28.38
13013;BME280;22580;57.670;12.006;2023-05-11T04:35:48;101430.63;;;23.54;28.59
13013;BME280;22580;57.670;12.006;2023-05-11T04:38:17;101426.34;;;23.60;28.99
13013;BME280;22580;57.670;12.006;2023-05-11T04:40:44;101432.78;;;23.67;28.62
13013;BME280;22580;57.670;12.006;2023-05-11T04:43:12;101423.78;;;23.59;28.71
13013;BME280;22580;57.670;12.006;2023-05-11T04:45:39;101437.22;;;23.68;28.85
13013;BME280;22580;57.670;12.006;2023-05-11T04:48:06;101438.25;;;23.67;29.04
13013;BME280;22580;57.670;12.006;2023-05-11T04:50:35;101434.44;;;23.76;28.55
13013;BME280;22580;57.670;12.006;2023-05-11T04:53:02;101445.69;;;23.81;28.64
13013;BME280;22580;57.670;12.006;2023-05-11T04:55:30;101437.38;;;23.67;28.99
13013;BME280;22580;57.670;12.006;2023-05-11T04:57:57;101437.66;;;23.80;28.69
13013;BME280;22580;57.670;12.006;2023-05-11T05:00:24;101447.78;;;23.71;29.09
13013;BME280;22580;57.670;12.006;2023-05-11T05:02:51;101423.34;;;23.39;29.24
13013;BME280;22580;57.670;12.006;2023-05-11T05:05:18;101447.13;;;23.61;29.92
13013;BME280;22580;57.670;12.006;2023-05-11T05:07:45;101451.00;;;23.75;29.27
13013;BME280;22580;57.670;12.006;2023-05-11T05:10:12;101447.38;;;23.82;29.55
13013;BME280;22580;57.670;12.006;2023-05-11T05:12:40;101451.16;;;23.81;29.30
13013;BME280;22580;57.670;12.006;2023-05-11T05:15:08;101455.41;;;23.84;30.15
13013;BME280;22580;57.670;12.006;2023-05-11T05:17:36;101441.56;;;23.85;29.70
13013;BME280;22580;57.670;12.006;2023-05-11T05:20:05;101434.41;;;24.15;29.32
13013;BME280;22580;57.670;12.006;2023-05-11T05:22:32;101458.34;;;24.36;28.95
13013;BME280;22580;57.670;12.006;2023-05-11T05:24:59;101453.34;;;24.40;29.05
13013;BME280;22580;57.670;12.006;2023-05-11T05:27:26;101465.75;;;24.50;29.02
13013;BME280;22580;57.670;12.006;2023-05-11T05:29:55;101463.41;;;24.16;29.12
13013;BME280;22580;57.670;12.006;2023-05-11T05:32:21;101453.59;;;24.53;29.21
13013;BME280;22580;57.670;12.006;2023-05-11T05:34:48;101469.31;;;24.74;28.75
13013;BME280;22580;57.670;12.006;2023-05-11T05:37:15;101433.44;;;24.54;28.31
13013;BME280;22580;57.670;12.006;2023-05-11T05:39:42;101466.41;;;24.98;28.20
13013;BME280;22580;57.670;12.006;2023-05-11T05:42:09;101467.25;;;24.76;28.51
13013;BME280;22580;57.670;12.006;2023-05-11T05:44:36;101444.75;;;24.89;28.47
13013;BME280;22580;57.670;12.006;2023-05-11T05:47:04;101477.53;;;24.97;28.03
13013;BME280;22580;57.670;12.006;2023-05-11T05:49:31;101478.25;;;24.91;28.48
13013;BME280;22580;57.670;12.006;2023-05-11T05:51:58;101462.06;;;25.04;28.43
13013;BME280;22580;57.670;12.006;2023-05-11T05:54:25;101482.06;;;25.04;28.28
13013;BME280;22580;57.670;12.006;2023-05-11T05:57:06;101446.69;;;25.03;28.12
13013;BME280;22580;57.670;12.006;2023-05-11T05:59:33;101491.34;;;25.33;28.10
13013;BME280;22580;57.670;12.006;2023-05-11T06:01:59;101490.28;;;25.19;28.11
13013;BME280;22580;57.670;12.006;2023-05-11T06:04:28;101471.69;;;25.00;28.37
13013;BME280;22580;57.670;12.006;2023-05-11T06:06:55;101497.94;;;25.24;28.49
13013;BME280;22580;57.670;12.006;2023-05-11T06:09:22;101489.72;;;25.38;28.38
13013;BME280;22580;57.670;12.006;2023-05-11T06:11:49;101486.38;;;25.66;27.99
13013;BME280;22580;57.670;12.006;2023-05-11T06:14:19;101496.75;;;25.70;27.90
13013;BME280;22580;57.670;12.006;2023-05-11T06:16:47;101490.88;;;25.44;27.92
13013;BME280;22580;57.670;12.006;2023-05-11T06:19:14;101489.44;;;25.33;28.27
13013;BME280;22580;57.670;12.006;2023-05-11T06:21:42;101512.38;;;25.32;28.12
13013;BME280;22580;57.670;12.006;2023-05-11T06:24:10;101506.81;;;25.26;28.37
13013;BME280;22580;57.670;12.006;2023-05-11T06:26:37;101500.28;;;25.27;28.29
13013;BME280;22580;57.670;12.006;2023-05-11T06:29:05;101511.88;;;25.14;28.83
13013;BME280;22580;57.670;12.006;2023-05-11T06:31:32;101513.34;;;25.54;28.51
13013;BME280;22580;57.670;12.006;2023-05-11T06:33:59;101500.47;;;25.25;28.88
13013;BME280;22580;57.670;12.006;2023-05-11T06:36:26;101503.72;;;25.43;28.83
13013;BME280;22580;57.670;12.006;2023-05-11T06:38:54;101510.97;;;25.51;28.61
13013;BME280;22580;57.670;12.006;2023-05-11T06:41:21;101496.91;;;25.39;28.54
13013;BME280;22580;57.670;12.006;2023-05-11T06:43:49;101502.94;;;25.20;29.17
13013;BME280;22580;57.670;12.006;2023-05-11T06:46:15;101511.22;;;24.97;29.44
13013;BME280;22580;57.670;12.006;2023-05-11T06:48:42;101504.19;;;25.62;29.12
13013;BME280;22580;57.670;12.006;2023-05-11T06:51:09;101495.97;;;25.62;28.88
13013;BME280;22580;57.670;12.006;2023-05-11T06:53:37;101506.84;;;25.99;28.67
13013;BME280;22580;57.670;12.006;2023-05-11T06:56:06;101507.59;;;25.49;28.45
13013;BME280;22580;57.670;12.006;2023-05-11T06:58:33;101514.38;;;25.53;28.59
13013;BME280;22580;57.670;12.006;2023-05-11T07:01:00;101509.38;;;25.57;28.58
13013;BME280;22580;57.670;12.006;2023-05-11T07:03:29;101518.31;;;25.21;29.22
13013;BME280;22580;57.670;12.006;2023-05-11T07:05:56;101518.16;;;25.52;28.81
13013;BME280;22580;57.670;12.006;2023-05-11T07:08:23;101501.81;;;25.59;28.62
13013;BME280;22580;57.670;12.006;2023-05-11T07:10:50;101509.97;;;25.96;28.27
13013;BME280;22580;57.670;12.006;2023-05-11T07:13:19;101520.69;;;26.12;28.13
13013;BME280;22580;57.670;12.006;2023-05-11T07:15:46;101529.34;;;25.65;28.51
13013;BME280;22580;57.670;12.006;2023-05-11T07:18:14;101517.81;;;25.85;28.47
13013;BME280;22580;57.670;12.006;2023-05-11T07:20:41;101530.09;;;25.22;29.14
13013;BME280;22580;57.670;12.006;2023-05-11T07:23:09;101524.72;;;25.28;29.37
13013;BME280;22580;57.670;12.006;2023-05-11T07:25:36;101518.63;;;25.41;29.13
13013;BME280;22580;57.670;12.006;2023-05-11T07:28:03;101474.91;;;25.03;29.31
13013;BME280;22580;57.670;12.006;2023-05-11T07:30:32;101495.78;;;25.48;29.29
13013;BME280;22580;57.670;12.006;2023-05-11T07:32:59;101510.91;;;25.89;28.89
13013;BME280;22580;57.670;12.006;2023-05-11T07:35:27;101516.28;;;26.48;29.04
13013;BME280;22580;57.670;12.006;2023-05-11T07:37:54;101499.13;;;26.09;29.07
13013;BME280;22580;57.670;12.006;2023-05-11T07:40:21;101539.63;;;26.43;28.75
13013;BME280;22580;57.670;12.006;2023-05-11T07:42:49;101523.97;;;26.59;28.34
13013;BME280;22580;57.670;12.006;2023-05-11T07:45:16;101529.50;;;26.87;28.43
13013;BME280;22580;57.670;12.006;2023-05-11T07:47:46;101517.41;;;26.74;28.60
13013;BME280;22580;57.670;12.006;2023-05-11T07:50:14;101540.06;;;27.04;28.22
13013;BME280;22580;57.670;12.006;2023-05-11T07:52:40;101543.94;;;26.95;28.21
13013;BME280;22580;57.670;12.006;2023-05-11T07:55:08;101544.13;;;27.36;27.61
13013;BME280;22580;57.670;12.006;2023-05-11T07:57:34;101544.63;;;27.47;27.49
13013;BME280;22580;57.670;12.006;2023-05-11T08:00:02;101542.28;;;27.71;26.90
13013;BME280;22580;57.670;12.006;2023-05-11T08:02:30;101548.16;;;27.40;27.49
13013;BME280;22580;57.670;12.006;2023-05-11T08:04:58;101548.41;;;27.18;27.95
13013;BME280;22580;57.670;12.006;2023-05-11T08:07:25;101540.66;;;27.56;27.34
13013;BME280;22580;57.670;12.006;2023-05-11T08:09:52;101542.50;;;27.49;27.46
13013;BME280;22580;57.670;12.006;2023-05-11T08:12:19;101531.44;;;27.63;27.45
13013;BME280;22580;57.670;12.006;2023-05-11T08:14:46;101544.94;;;27.99;27.19
13013;BME280;22580;57.670;12.006;2023-05-11T08:17:13;101552.56;;;27.35;27.94
13013;BME280;22580;57.670;12.006;2023-05-11T08:19:40;101549.38;;;27.59;27.32
13013;BME280;22580;57.670;12.006;2023-05-11T08:22:08;101549.44;;;27.66;26.92
13013;BME280;22580;57.670;12.006;2023-05-11T08:24:35;101556.19;;;28.11;26.93
13013;BME280;22580;57.670;12.006;2023-05-11T08:27:02;101563.28;;;27.92;27.06
13013;BME280;22580;57.670;12.006;2023-05-11T08:29:29;101571.94;;;27.89;26.86
13013;BME280;22580;57.670;12.006;2023-05-11T08:31:56;101563.34;;;27.99;27.07
13013;BME280;22580;57.670;12.006;2023-05-11T08:34:24;101565.53;;;28.17;27.15
13013;BME280;22580;57.670;12.006;2023-05-11T08:36:54;101554.69;;;28.02;27.07
13013;BME280;22580;57.670;12.006;2023-05-11T08:39:23;101579.19;;;27.97;27.33
13013;BME280;22580;57.670;12.006;2023-05-11T08:41:50;101571.56;;;27.99;26.89
13013;BME280;22580;57.670;12.006;2023-05-11T08:44:19;101573.56;;;27.77;27.41
13013;BME280;22580;57.670;12.006;2023-05-11T08:46:47;101573.06;;;28.01;27.16
13013;BME280;22580;57.670;12.006;2023-05-11T08:49:17;101574.03;;;27.87;27.08
13013;BME280;22580;57.670;12.006;2023-05-11T08:51:44;101571.34;;;27.94;27.42
13013;BME280;22580;57.670;12.006;2023-05-11T08:54:12;101577.28;;;27.97;27.36
13013;BME280;22580;57.670;12.006;2023-05-11T08:56:40;101580.88;;;27.98;27.43
13013;BME280;22580;57.670;12.006;2023-05-11T08:59:09;101584.13;;;28.15;27.09
13013;BME280;22580;57.670;12.006;2023-05-11T09:01:40;101590.91;;;28.19;27.19
13013;BME280;22580;57.670;12.006;2023-05-11T09:04:07;101580.66;;;27.99;27.21
13013;BME280;22580;57.670;12.006;2023-05-11T09:06:35;101587.19;;;27.92;27.44
13013;BME280;22580;57.670;12.006;2023-05-11T09:09:04;101585.50;;;28.32;26.85
13013;BME280;22580;57.670;12.006;2023-05-11T09:11:31;101594.06;;;28.50;26.95
13013;BME280;22580;57.670;12.006;2023-05-11T09:14:00;101587.72;;;28.56;26.35
13013;BME280;22580;57.670;12.006;2023-05-11T09:16:27;101588.97;;;28.47;26.83
13013;BME280;22580;57.670;12.006;2023-05-11T09:18:59;101591.47;;;28.42;26.59
13013;BME280;22580;57.670;12.006;2023-05-11T09:21:29;101588.53;;;28.44;27.09
13013;BME280;22580;57.670;12.006;2023-05-11T09:23:57;101586.44;;;28.11;27.34
13013;BME280;22580;57.670;12.006;2023-05-11T09:26:25;101582.19;;;28.08;26.90
13013;BME280;22580;57.670;12.006;2023-05-11T09:28:55;101581.34;;;28.49;27.03
13013;BME280;22580;57.670;12.006;2023-05-11T09:31:36;101580.91;;;28.46;27.09
13013;BME280;22580;57.670;12.006;2023-05-11T09:34:11;101567.50;;;28.90;26.54
13013;BME280;22580;57.670;12.006;2023-05-11T09:36:38;101580.41;;;28.96;26.27
13013;BME280;22580;57.670;12.006;2023-05-11T09:39:06;101570.88;;;28.92;26.38
13013;BME280;22580;57.670;12.006;2023-05-11T09:41:34;101584.88;;;29.24;26.30
13013;BME280;22580;57.670;12.006;2023-05-11T09:44:08;101577.47;;;29.11;25.99
13013;BME280;22580;57.670;12.006;2023-05-11T09:46:39;101573.66;;;29.39;25.71
13013;BME280;22580;57.670;12.006;2023-05-11T09:49:06;101573.44;;;29.47;25.68
13013;BME280;22580;57.670;12.006;2023-05-11T09:51:36;101581.72;;;29.40;25.72
13013;BME280;22580;57.670;12.006;2023-05-11T09:54:15;101586.81;;;29.43;26.05
13013;BME280;22580;57.670;12.006;2023-05-11T09:56:47;101574.94;;;29.36;26.22
13013;BME280;22580;57.670;12.006;2023-05-11T09:59:36;101570.47;;;29.28;26.09
13013;BME280;22580;57.670;12.006;2023-05-11T10:02:20;101577.28;;;29.46;26.29
13013;BME280;22580;57.670;12.006;2023-05-11T10:04:48;101574.06;;;29.49;25.87
13013;BME280;22580;57.670;12.006;2023-05-11T10:07:27;101583.00;;;28.37;27.00
13013;BME280;22580;57.670;12.006;2023-05-11T10:09:55;101586.16;;;27.99;27.49
13013;BME280;22580;57.670;12.006;2023-05-11T10:12:23;101582.31;;;28.22;27.94
13013;BME280;22580;57.670;12.006;2023-05-11T10:15:07;101590.06;;;28.72;27.44
13013;BME280;22580;57.670;12.006;2023-05-11T10:17:48;101593.75;;;28.99;27.07
13013;BME280;22580;57.670;12.006;2023-05-11T10:20:15;101581.91;;;28.99;26.66
13013;BME280;22580;57.670;12.006;2023-05-11T10:22:44;101566.66;;;28.96;26.53
13013;BME280;22580;57.670;12.006;2023-05-11T10:25:12;101579.78;;;29.01;26.80
13013;BME280;22580;57.670;12.006;2023-05-11T10:27:40;101561.78;;;28.92;26.43
13013;BME280;22580;57.670;12.006;2023-05-11T10:30:09;101584.75;;;28.10;27.16
13013;BME280;22580;57.670;12.006;2023-05-11T10:32:37;101588.06;;;27.15;28.48
13013;BME280;22580;57.670;12.006;2023-05-11T10:35:07;101571.88;;;27.76;28.17
13013;BME280;22580;57.670;12.006;2023-05-11T10:37:34;101586.50;;;27.83;27.91
13013;BME280;22580;57.670;12.006;2023-05-11T10:40:02;101588.91;;;26.73;29.46
13013;BME280;22580;57.670;12.006;2023-05-11T10:43:03;101586.66;;;27.75;28.16
13013;BME280;22580;57.670;12.006;2023-05-11T10:45:42;101584.78;;;27.82;28.16
13013;BME280;22580;57.670;12.006;2023-05-11T10:48:31;101567.50;;;28.23;27.44
13013;BME280;22580;57.670;12.006;2023-05-11T10:51:15;101593.72;;;28.86;26.38
13013;BME280;22580;57.670;12.006;2023-05-11T10:53:58;101577.69;;;27.94;27.09
13013;BME280;22580;57.670;12.006;2023-05-11T10:56:41;101595.22;;;27.93;27.14
13013;BME280;22580;57.670;12.006;2023-05-11T11:02:07;101589.47;;;27.88;27.41
13013;BME280;22580;57.670;12.006;2023-05-11T11:04:44;101599.53;;;27.68;27.69
13013;BME280;22580;57.670;12.006;2023-05-11T11:07:13;101602.00;;;27.14;27.95
13013;BME280;22580;57.670;12.006;2023-05-11T11:09:50;101595.22;;;27.93;27.49
13013;BME280;22580;57.670;12.006;2023-05-11T11:12:18;101586.13;;;27.93;27.07
13013;BME280;22580;57.670;12.006;2023-05-11T11:14:56;101600.63;;;27.24;28.08
13013;BME280;22580;57.670;12.006;2023-05-11T11:17:25;101589.34;;;27.62;27.96
13013;BME280;22580;57.670;12.006;2023-05-11T11:19:55;101591.53;;;27.73;27.54
13013;BME280;22580;57.670;12.006;2023-05-11T11:22:43;101607.38;;;27.78;27.78
13013;BME280;22580;57.670;12.006;2023-05-11T11:25:11;101601.16;;;28.31;27.10
13013;BME280;22580;57.670;12.006;2023-05-11T11:27:55;101608.06;;;28.21;26.96
13013;BME280;22580;57.670;12.006;2023-05-11T11:30:25;101609.94;;;27.79;27.33
13013;BME280;22580;57.670;12.006;2023-05-11T11:32:54;101585.47;;;27.56;27.75
13013;BME280;22580;57.670;12.006;2023-05-11T11:35:44;101614.47;;;27.93;27.35
13013;BME280;22580;57.670;12.006;2023-05-11T11:38:14;101606.09;;;27.46;27.99
13013;BME280;22580;57.670;12.006;2023-05-11T11:40:42;101613.44;;;28.01;27.55
13013;BME280;22580;57.670;12.006;2023-05-11T11:43:11;101618.88;;;28.77;26.70
13013;BME280;22580;57.670;12.006;2023-05-11T11:45:49;101616.66;;;29.33;26.39
13013;BME280;22580;57.670;12.006;2023-05-11T11:48:20;101622.22;;;28.65;26.10
13013;BME280;22580;57.670;12.006;2023-05-11T11:50:48;101626.00;;;27.82;27.50
13013;BME280;22580;57.670;12.006;2023-05-11T11:56:39;101608.19;;;29.54;26.34
13013;BME280;22580;57.670;12.006;2023-05-11T11:59:06;101621.50;;;30.04;25.66
13013;BME280;22580;57.670;12.006;2023-05-11T12:01:38;101600.72;;;29.94;24.85
13013;BME280;22580;57.670;12.006;2023-05-11T12:04:29;101612.41;;;29.04;25.28
13013;BME280;22580;57.670;12.006;2023-05-11T12:06:58;101633.59;;;29.10;25.92
13013;BME280;22580;57.670;12.006;2023-05-11T12:09:25;101625.81;;;28.66;26.32
13013;BME280;22580;57.670;12.006;2023-05-11T12:11:54;101636.00;;;28.72;26.05
13013;BME280;22580;57.670;12.006;2023-05-11T12:14:22;101602.13;;;28.58;26.18
13013;BME280;22580;57.670;12.006;2023-05-11T12:17:02;101634.72;;;28.68;26.45
13013;BME280;22580;57.670;12.006;2023-05-11T12:19:29;101627.91;;;28.51;26.20
13013;BME280;22580;57.670;12.006;2023-05-11T12:21:56;101640.72;;;28.30;26.26
13013;BME280;22580;57.670;12.006;2023-05-11T12:24:23;101612.34;;;27.95;27.00
13013;BME280;22580;57.670;12.006;2023-05-11T12:26:55;101635.53;;;28.62;26.02
13013;BME280;22580;57.670;12.006;2023-05-11T12:29:23;101643.13;;;29.08;26.20
13013;BME280;22580;57.670;12.006;2023-05-11T12:31:50;101602.94;;;29.46;25.61
13013;BME280;22580;57.670;12.006;2023-05-11T12:34:19;101629.78;;;29.11;25.60
13013;BME280;22580;57.670;12.006;2023-05-11T12:36:47;101630.88;;;29.50;24.96
13013;BME280;22580;57.670;12.006;2023-05-11T12:39:16;101643.78;;;29.36;25.31
13013;BME280;22580;57.670;12.006;2023-05-11T12:41:44;101617.31;;;29.35;25.46
13013;BME280;22580;57.670;12.006;2023-05-11T12:44:14;101642.75;;;29.57;25.73
13013;BME280;22580;57.670;12.006;2023-05-11T12:46:42;101637.63;;;29.80;25.33
13013;BME280;22580;57.670;12.006;2023-05-11T12:49:10;101639.13;;;29.63;24.95
13013;BME280;22580;57.670;12.006;2023-05-11T12:51:46;101645.03;;;29.20;25.54
13013;BME280;22580;57.670;12.006;2023-05-11T12:54:29;101644.16;;;30.19;24.73
13013;BME280;22580;57.670;12.006;2023-05-11T12:56:57;101642.44;;;30.31;24.31
13013;BME280;22580;57.670;12.006;2023-05-11T12:59:31;101630.38;;;30.19;24.15